Lake Wildwood, California
Current Conditions -  °F | °C
As of 3:40 PM on Saturday 20 Dec 2014 (Local Time) from KGOO Reporting Station
Overcast Overcast  
Wind Chill: 44°   Ceiling: 100
Heat Index: 46°   Visibility: 0mi
Dew Point: 46°   Wind: 6mph
Humidity: 100%   Direction: 160°SSE
Pressure: 30.21"   Gusts: NA
Location:  39.1921°N, 121.19°W
Report Text: KGOO 202340Z AUTO 16005KT M1/4SM OVC001 08/08 A3021 RMK AO1 P0001
Loading
Personal Weather Stations






























Interactive Weather Map New forecast layout! Learn more

10-Day Weather Forecast

Advertisements
Track Severe Weather on mobile